Wakefield, New Hampshire
Current Conditions -  °F | °C
As of 1:35 PM on Thursday 30 Oct 2014 (Local Time) from KSFM Reporting Station
Clear Clear  
Wind Chill: 54°   Ceiling: Unl
Heat Index: 54°   Visibility: 10mi
Dew Point: 34°   Wind: 10mph
Humidity: 47%   Direction: 290°WNW
Pressure: 29.89"   Gusts: NA
Location:  43.5632°N, 71.0133°W
Report Text: KSFM 301735Z AUTO 29009KT 10SM CLR 12/01 A2989 RMK AO1
Loading
Personal Weather Stations






























Interactive Weather Map
Tropical Storm Tracking
New forecast layout! Learn more

10-Day Weather Forecast

Advertisements
Track Severe Weather on mobile